Time;durP1;ratioP1;P1;durP2;ratioP2;P2;SDS_P1;SDS_P2;PMS_P1;PMS_P2;Temp;Humidity;BMP_temperature;BMP_pressure;BME280_temperature;BME280_humidity;BME280_pressure;Samples;Min_cycle;Max_cycle;Signal;HPM_P1;HPM_P2
2023/01/07 00:01:40;;;;;;;18.70;10.07;;;;;;;;;;6342754;22;20370;-81
2023/01/07 00:04:09;;;;;;;22.08;11.30;;;;;;;;;;6314034;22;20026;-81
2023/01/07 00:06:36;;;;;;;19.80;11.40;;;;;;;;;;6339054;22;20209;-82
2023/01/07 00:09:04;;;;;;;18.20;10.25;;;;;;;;;;6315565;22;20045;-81
2023/01/07 00:11:35;;;;;;;18.85;9.93;;;;;;;;;;6343079;22;20927;-81
2023/01/07 00:14:02;;;;;;;17.77;10.27;;;;;;;;;;6343549;22;20007;-81
2023/01/07 00:16:30;;;;;;;17.08;9.68;;;;;;;;;;6341983;22;20034;-80
2023/01/07 00:18:57;;;;;;;19.10;9.88;;;;;;;;;;6342170;22;20850;-81
2023/01/07 00:21:24;;;;;;;19.25;10.02;;;;;;;;;;6317289;22;20023;-81
2023/01/07 00:23:55;;;;;;;18.55;9.65;;;;;;;;;;6317023;22;20019;-81
2023/01/07 00:26:22;;;;;;;18.88;8.38;;;;;;;;;;6315289;22;20060;-81
2023/01/07 00:28:49;;;;;;;16.38;9.07;;;;;;;;;;6341879;22;20058;-81
2023/01/07 00:31:17;;;;;;;16.13;8.98;;;;;;;;;;6343217;22;20102;-81
2023/01/07 00:34:05;;;;;;;15.63;8.93;;;;;;;;;;6314193;22;20011;-81
2023/01/07 00:36:35;;;;;;;15.63;7.90;;;;;;;;;;6341777;22;20121;-81
2023/01/07 00:39:06;;;;;;;15.70;8.65;;;;;;;;;;6314041;22;20030;-81
2023/01/07 00:41:32;;;;;;;16.13;7.97;;;;;;;;;;6343787;22;20034;-81
2023/01/07 00:43:59;;;;;;;15.20;7.88;;;;;;;;;;6344717;22;20738;-81
2023/01/07 00:46:25;;;;;;;13.90;7.57;;;;;;;;;;6342518;22;20268;-81
2023/01/07 00:48:52;;;;;;;15.70;7.75;;;;;;;;;;6343558;22;20046;-81
2023/01/07 00:51:18;;;;;;;14.73;7.53;;;;;;;;;;6315321;22;20019;-81
2023/01/07 00:53:45;;;;;;;18.58;7.40;;;;;;;;;;6341680;22;20023;-81
2023/01/07 00:56:13;;;;;;;14.32;7.55;;;;;;;;;;6315657;22;20014;-81
2023/01/07 00:58:40;;;;;;;18.05;6.97;;;;;;;;;;6343123;22;20839;-81
2023/01/07 01:01:07;;;;;;;13.57;6.63;;;;;;;;;;6343634;22;20027;-81
2023/01/07 01:03:33;;;;;;;21.45;7.50;;;;;;;;;;6340523;22;20015;-81
2023/01/07 01:06:13;;;;;;;14.43;7.43;;;;;;;;;;6343584;22;20054;-81
2023/01/07 01:08:41;;;;;;;15.50;8.23;;;;;;;;;;6343076;22;20133;-81
2023/01/07 01:11:08;;;;;;;20.05;8.27;;;;;;;;;;6313978;22;20029;-81
2023/01/07 01:13:34;;;;;;;15.85;8.02;;;;;;;;;;6314278;22;20023;-80
2023/01/07 01:16:05;;;;;;;19.20;7.35;;;;;;;;;;6343815;22;20141;-80
2023/01/07 01:18:31;;;;;;;;;;;;;;;;;;6343366;22;20094;-81
2023/01/07 01:21:01;;;;;;;15.80;8.10;;;;;;;;;;6341686;22;47221;-81
2023/01/07 01:23:28;;;;;;;17.17;8.52;;;;;;;;;;6342617;22;20020;-81
2023/01/07 01:26:00;;;;;;;16.83;8.40;;;;;;;;;;6343729;22;20534;-81
2023/01/07 01:28:27;;;;;;;17.05;7.78;;;;;;;;;;6341837;22;20025;-81
2023/01/07 01:30:54;;;;;;;19.65;8.55;;;;;;;;;;6316700;22;20031;-81
2023/01/07 01:33:20;;;;;;;21.70;8.93;;;;;;;;;;6314244;22;20023;-81
2023/01/07 01:35:47;;;;;;;20.45;9.20;;;;;;;;;;6342368;22;20029;-80
2023/01/07 01:38:13;;;;;;;19.35;9.32;;;;;;;;;;6343980;22;20301;-81
2023/01/07 01:40:39;;;;;;;23.55;9.88;;;;;;;;;;6343417;22;20480;-81
2023/01/07 01:43:27;;;;;;;19.23;9.38;;;;;;;;;;6315081;22;20068;-80
2023/01/07 01:45:53;;;;;;;20.80;9.23;;;;;;;;;;6316319;22;20102;-81
2023/01/07 01:48:29;;;;;;;17.73;8.80;;;;;;;;;;6343625;22;20023;-81
2023/01/07 01:50:57;;;;;;;19.35;8.65;;;;;;;;;;6342658;22;20075;-81
2023/01/07 01:53:29;;;;;;;17.33;9.00;;;;;;;;;;6314432;22;20023;-81
2023/01/07 01:56:03;;;;;;;17.55;8.23;;;;;;;;;;6342424;22;20019;-81
2023/01/07 01:58:33;;;;;;;18.20;8.55;;;;;;;;;;6343201;22;20446;-81
2023/01/07 02:00:59;;;;;;;17.70;8.67;;;;;;;;;;6343534;22;20031;-80
2023/01/07 02:03:27;;;;;;;16.73;8.40;;;;;;;;;;6342953;22;20031;-82
2023/01/07 02:05:54;;;;;;;19.67;8.43;;;;;;;;;;6342829;22;20015;-81
2023/01/07 02:08:22;;;;;;;19.20;9.00;;;;;;;;;;6315100;22;20027;-80
2023/01/07 02:10:53;;;;;;;17.48;8.13;;;;;;;;;;6316439;22;20007;-81
2023/01/07 02:13:42;;;;;;;18.13;8.68;;;;;;;;;;6342428;22;20361;-81
2023/01/07 02:16:20;;;;;;;17.73;8.30;;;;;;;;;;6341577;22;20026;-81
2023/01/07 02:19:05;;;;;;;16.45;8.20;;;;;;;;;;6342701;22;20538;-81
2023/01/07 02:21:37;;;;;;;17.20;8.38;;;;;;;;;;6343451;22;20023;-81
2023/01/07 02:24:34;;;;;;;16.70;8.75;;;;;;;;;;6314736;22;20020;-81
2023/01/07 02:27:09;;;;;;;16.83;8.68;;;;;;;;;;6343325;22;20019;-81
2023/01/07 02:29:51;;;;;;;17.75;8.80;;;;;;;;;;6313974;22;20105;-81
2023/01/07 02:32:23;;;;;;;17.52;8.02;;;;;;;;;;6342488;22;20020;-81
2023/01/07 02:34:52;;;;;;;16.65;8.02;;;;;;;;;;6315156;22;20027;-81
2023/01/07 02:37:43;;;;;;;14.85;8.70;;;;;;;;;;6342479;22;20084;-81
2023/01/07 02:40:36;;;;;;;17.77;8.05;;;;;;;;;;6344424;22;20020;-81
2023/01/07 02:43:27;;;;;;;14.75;7.70;;;;;;;;;;6344211;22;20059;-81
2023/01/07 02:46:13;;;;;;;17.55;7.68;;;;;;;;;;6316037;22;20015;-81
2023/01/07 02:48:40;;;;;;;16.52;7.72;;;;;;;;;;6343380;22;20400;-82
2023/01/07 02:51:06;;;;;;;16.45;7.38;;;;;;;;;;6343108;22;20015;-81
2023/01/07 02:53:33;;;;;;;17.00;7.90;;;;;;;;;;6342735;22;20011;-81
2023/01/07 02:56:11;;;;;;;15.85;7.40;;;;;;;;;;6343394;22;20022;-81
2023/01/07 02:58:40;;;;;;;13.88;7.15;;;;;;;;;;6316340;22;20068;-81
2023/01/07 03:01:26;;;;;;;16.13;8.02;;;;;;;;;;6342421;22;20031;-81
2023/01/07 03:03:55;;;;;;;14.93;6.60;;;;;;;;;;6315037;22;20062;-81
2023/01/07 03:06:41;;;;;;;21.48;7.28;;;;;;;;;;6342032;22;20023;-81
2023/01/07 03:09:13;;;;;;;13.55;6.40;;;;;;;;;;6344156;22;20110;-81
2023/01/07 03:11:43;;;;;;;16.17;6.22;;;;;;;;;;6343037;22;20063;-81
2023/01/07 03:14:18;;;;;;;15.20;6.77;;;;;;;;;;6342311;22;20027;-81
2023/01/07 03:17:04;;;;;;;13.05;6.68;;;;;;;;;;6313661;22;20026;-81
2023/01/07 03:19:33;;;;;;;16.60;6.85;;;;;;;;;;6342076;22;20034;-81
2023/01/07 03:22:00;;;;;;;17.00;6.20;;;;;;;;;;6343618;22;20019;-81
2023/01/07 03:24:30;;;;;;;17.15;6.65;;;;;;;;;;6314868;22;20023;-81
2023/01/07 03:26:57;;;;;;;13.32;6.25;;;;;;;;;;6342510;22;20016;-81
2023/01/07 03:29:23;;;;;;;12.00;6.25;;;;;;;;;;6342690;22;20089;-81
2023/01/07 03:31:54;;;;;;;15.77;6.95;;;;;;;;;;6342646;22;20862;-82
2023/01/07 03:34:21;;;;;;;13.93;6.40;;;;;;;;;;6315662;22;20058;-81
2023/01/07 03:36:51;;;;;;;15.98;6.13;;;;;;;;;;6342485;22;20038;-81
2023/01/07 03:39:21;;;;;;;10.80;5.93;;;;;;;;;;6316785;22;20011;-80
2023/01/07 03:44:35;;;;;;;12.43;6.22;;;;;;;;;;6342500;22;20258;-81
2023/01/07 03:47:02;;;;;;;14.48;6.40;;;;;;;;;;6343722;22;20023;-81
2023/01/07 03:49:28;;;;;;;13.45;5.47;;;;;;;;;;6345970;22;20414;-82
2023/01/07 03:51:55;;;;;;;11.23;5.70;;;;;;;;;;6342791;22;20028;-79
2023/01/07 03:54:22;;;;;;;12.60;6.70;;;;;;;;;;6343874;22;20051;-79
2023/01/07 03:56:49;;;;;;;14.32;6.60;;;;;;;;;;6315421;22;20015;-79
2023/01/07 03:59:15;;;;;;;12.00;6.05;;;;;;;;;;6344151;22;20095;-79
2023/01/07 04:01:41;;;;;;;13.13;5.95;;;;;;;;;;6316465;22;20816;-80
2023/01/07 04:04:08;;;;;;;15.10;7.20;;;;;;;;;;6342703;22;20018;-80
2023/01/07 04:06:34;;;;;;;12.70;5.95;;;;;;;;;;6343215;22;20023;-80
2023/01/07 04:09:01;;;;;;;11.18;5.50;;;;;;;;;;6343039;22;20019;-80
2023/01/07 04:11:27;;;;;;;13.85;6.63;;;;;;;;;;6343108;22;20023;-80
2023/01/07 04:13:53;;;;;;;14.00;6.18;;;;;;;;;;6343009;22;20130;-80
2023/01/07 04:16:20;;;;;;;11.43;5.63;;;;;;;;;;6316059;22;20011;-80
2023/01/07 04:18:46;;;;;;;14.45;5.70;;;;;;;;;;6343872;22;20014;-80
2023/01/07 04:21:12;;;;;;;14.52;7.03;;;;;;;;;;6344975;22;20019;-80
2023/01/07 04:23:39;;;;;;;13.10;5.90;;;;;;;;;;6343066;22;20030;-80
2023/01/07 04:26:05;;;;;;;12.57;5.93;;;;;;;;;;6344391;22;20620;-80
2023/01/07 04:28:31;;;;;;;14.98;5.70;;;;;;;;;;6343311;22;20023;-80
2023/01/07 04:30:58;;;;;;;15.07;6.32;;;;;;;;;;6342622;22;20035;-80
2023/01/07 04:33:25;;;;;;;15.27;6.35;;;;;;;;;;6342720;22;20459;-80
2023/01/07 04:35:56;;;;;;;12.73;6.00;;;;;;;;;;6343969;22;20019;-80
2023/01/07 04:38:23;;;;;;;15.57;5.95;;;;;;;;;;6342776;22;20023;-79
2023/01/07 04:40:49;;;;;;;12.38;5.90;;;;;;;;;;6341165;22;20045;-80
2023/01/07 04:43:15;;;;;;;15.02;5.90;;;;;;;;;;6343705;22;20015;-80
2023/01/07 04:45:42;;;;;;;12.93;5.75;;;;;;;;;;6343758;22;20031;-80
2023/01/07 04:48:08;;;;;;;12.85;6.25;;;;;;;;;;6344215;22;20057;-81
2023/01/07 04:50:34;;;;;;;12.18;6.03;;;;;;;;;;6342264;22;20027;-80
2023/01/07 04:53:01;;;;;;;15.75;5.90;;;;;;;;;;6343728;22;20101;-80
2023/01/07 04:55:27;;;;;;;13.77;5.28;;;;;;;;;;6344719;22;20459;-80
2023/01/07 04:57:53;;;;;;;13.25;5.82;;;;;;;;;;6317138;22;20129;-80
2023/01/07 05:00:20;;;;;;;17.48;6.18;;;;;;;;;;6344655;22;20034;-80
2023/01/07 05:02:46;;;;;;;12.27;5.68;;;;;;;;;;6345150;22;20065;-81
2023/01/07 05:05:13;;;;;;;11.40;5.28;;;;;;;;;;6342891;22;20760;-80
2023/01/07 05:07:39;;;;;;;10.57;5.43;;;;;;;;;;6344238;22;20023;-80
2023/01/07 05:10:05;;;;;;;15.85;5.88;;;;;;;;;;6344144;22;20029;-80
2023/01/07 05:12:32;;;;;;;13.93;5.78;;;;;;;;;;6342441;22;20023;-81
2023/01/07 05:14:59;;;;;;;11.27;6.25;;;;;;;;;;6316276;22;20026;-80
2023/01/07 05:17:25;;;;;;;13.63;5.35;;;;;;;;;;6344406;22;20893;-80
2023/01/07 05:19:52;;;;;;;10.93;5.30;;;;;;;;;;6344964;22;20035;-80
2023/01/07 05:22:21;;;;;;;10.55;5.45;;;;;;;;;;6344114;22;20030;-80
2023/01/07 05:24:47;;;;;;;11.43;5.40;;;;;;;;;;6344433;22;20037;-80
2023/01/07 05:27:14;;;;;;;10.48;5.35;;;;;;;;;;6316559;22;20030;-80
2023/01/07 05:29:40;;;;;;;9.02;5.03;;;;;;;;;;6344334;22;20102;-80
2023/01/07 05:32:06;;;;;;;11.52;5.30;;;;;;;;;;6342865;22;20034;-80
2023/01/07 05:34:33;;;;;;;9.93;4.55;;;;;;;;;;6315233;22;20758;-80
2023/01/07 05:36:59;;;;;;;17.10;5.50;;;;;;;;;;6342971;22;20027;-80
2023/01/07 05:39:25;;;;;;;11.75;4.90;;;;;;;;;;6344632;22;20026;-80
2023/01/07 05:41:52;;;;;;;10.48;4.93;;;;;;;;;;6343258;22;20118;-80
2023/01/07 05:44:18;;;;;;;10.48;4.97;;;;;;;;;;6344315;22;20079;-80
2023/01/07 05:46:44;;;;;;;11.13;4.85;;;;;;;;;;6343439;22;20023;-80
2023/01/07 05:49:11;;;;;;;13.38;5.43;;;;;;;;;;6345066;22;20024;-80
2023/01/07 05:51:37;;;;;;;9.60;4.78;;;;;;;;;;6316674;22;20023;-80
2023/01/07 05:54:04;;;;;;;10.48;5.18;;;;;;;;;;6318398;22;20064;-81
2023/01/07 05:56:35;;;;;;;8.68;4.50;;;;;;;;;;6343668;22;20033;-80
2023/01/07 05:59:02;;;;;;;9.77;4.35;;;;;;;;;;6343370;22;20058;-81
2023/01/07 06:01:28;;;;;;;9.57;4.72;;;;;;;;;;6342653;22;20030;-80
2023/01/07 06:03:55;;;;;;;11.23;5.18;;;;;;;;;;6343469;22;20030;-81
2023/01/07 06:06:21;;;;;;;10.20;5.00;;;;;;;;;;6343697;22;20026;-80
2023/01/07 06:08:48;;;;;;;10.23;4.45;;;;;;;;;;6344441;22;20027;-80
2023/01/07 06:11:14;;;;;;;10.43;5.35;;;;;;;;;;6338687;22;20011;-80
2023/01/07 06:13:40;;;;;;;10.52;3.95;;;;;;;;;;6343886;22;20023;-80
2023/01/07 06:16:07;;;;;;;11.15;4.72;;;;;;;;;;6342536;22;20007;-80
2023/01/07 06:18:35;;;;;;;10.30;4.53;;;;;;;;;;6341910;22;20080;-80
2023/01/07 06:21:01;;;;;;;8.50;3.72;;;;;;;;;;6341193;22;20019;-80
2023/01/07 06:23:28;;;;;;;8.90;3.60;;;;;;;;;;6342359;22;20003;-80
2023/01/07 06:25:54;;;;;;;8.95;4.05;;;;;;;;;;6340190;22;20011;-80
2023/01/07 06:28:20;;;;;;;9.27;3.90;;;;;;;;;;6341762;22;20023;-79
2023/01/07 06:30:47;;;;;;;8.95;4.07;;;;;;;;;;6339565;22;20051;-79
2023/01/07 06:33:14;;;;;;;6.43;3.20;;;;;;;;;;6340760;22;20030;-80
2023/01/07 06:35:40;;;;;;;9.32;3.80;;;;;;;;;;6343038;22;20573;-81
2023/01/07 06:38:07;;;;;;;8.27;3.80;;;;;;;;;;6340607;22;20023;-80
2023/01/07 06:40:33;;;;;;;10.30;3.85;;;;;;;;;;6342402;22;20019;-80
2023/01/07 06:43:00;;;;;;;7.65;3.67;;;;;;;;;;6340356;22;20027;-79
2023/01/07 06:45:26;;;;;;;11.27;3.25;;;;;;;;;;6339674;22;20019;-80
2023/01/07 06:47:54;;;;;;;7.57;3.55;;;;;;;;;;6341988;22;20071;-80
2023/01/07 06:50:21;;;;;;;8.07;3.30;;;;;;;;;;6339958;22;20109;-80
2023/01/07 06:52:47;;;;;;;8.50;3.42;;;;;;;;;;6340653;22;20019;-80
2023/01/07 06:55:14;;;;;;;7.85;3.47;;;;;;;;;;6315482;22;20055;-80
2023/01/07 06:57:42;;;;;;;8.68;3.53;;;;;;;;;;6341922;22;20438;-80
2023/01/07 07:00:09;;;;;;;9.18;3.30;;;;;;;;;;6315381;22;20468;-80
2023/01/07 07:02:35;;;;;;;7.03;3.30;;;;;;;;;;6342050;22;20015;-80
2023/01/07 07:05:02;;;;;;;8.15;2.67;;;;;;;;;;6342447;22;20015;-80
2023/01/07 07:07:28;;;;;;;7.03;3.13;;;;;;;;;;6343135;22;20035;-80
2023/01/07 07:09:54;;;;;;;8.88;2.95;;;;;;;;;;6342434;22;20067;-80
2023/01/07 07:12:21;;;;;;;5.40;2.60;;;;;;;;;;6314541;22;20023;-80
2023/01/07 07:14:47;;;;;;;7.80;2.90;;;;;;;;;;6342986;22;20050;-80
2023/01/07 07:17:13;;;;;;;6.97;2.80;;;;;;;;;;6341162;22;20889;-80
2023/01/07 07:19:40;;;;;;;7.30;2.60;;;;;;;;;;6342468;22;20034;-80
2023/01/07 07:22:06;;;;;;;8.27;2.38;;;;;;;;;;6341633;22;20068;-80
2023/01/07 07:24:32;;;;;;;8.15;2.92;;;;;;;;;;6341395;22;20054;-80
2023/01/07 07:26:59;;;;;;;8.07;2.70;;;;;;;;;;6341756;22;20071;-82
2023/01/07 07:29:25;;;;;;;7.97;2.42;;;;;;;;;;6342033;22;20031;-80
2023/01/07 07:31:52;;;;;;;6.97;2.67;;;;;;;;;;6316236;22;20023;-80
2023/01/07 07:34:18;;;;;;;5.60;2.55;;;;;;;;;;6342078;22;20077;-80
2023/01/07 07:36:44;;;;;;;4.53;2.38;;;;;;;;;;6340078;22;20102;-80
2023/01/07 07:39:11;;;;;;;5.88;2.47;;;;;;;;;;6344010;22;20611;-79
2023/01/07 07:41:37;;;;;;;5.65;2.13;;;;;;;;;;6342964;22;20035;-79
2023/01/07 07:44:04;;;;;;;7.20;2.13;;;;;;;;;;6343265;22;20876;-79
2023/01/07 07:46:30;;;;;;;7.97;2.33;;;;;;;;;;6315321;22;20026;-79
2023/01/07 07:48:57;;;;;;;4.07;2.00;;;;;;;;;;6312133;22;20028;-80
2023/01/07 07:51:23;;;;;;;5.20;1.98;;;;;;;;;;6341363;22;20341;-80
2023/01/07 07:53:50;;;;;;;6.45;1.85;;;;;;;;;;6341821;22;20015;-79
2023/01/07 07:56:16;;;;;;;4.25;1.65;;;;;;;;;;6341651;22;20035;-80
2023/01/07 07:58:42;;;;;;;6.85;2.28;;;;;;;;;;6342983;22;20071;-81
2023/01/07 08:01:09;;;;;;;4.95;2.00;;;;;;;;;;6343586;22;20035;-80
2023/01/07 08:03:35;;;;;;;7.15;2.10;;;;;;;;;;6341582;22;20434;-80
2023/01/07 08:06:02;;;;;;;5.82;2.13;;;;;;;;;;6336302;22;20034;-80
2023/01/07 08:08:29;;;;;;;5.57;1.80;;;;;;;;;;6311958;22;20029;-80
2023/01/07 08:10:57;;;;;;;3.63;1.60;;;;;;;;;;6340519;22;20106;-80
2023/01/07 08:13:24;;;;;;;6.10;1.98;;;;;;;;;;6312104;22;20528;-79
2023/01/07 08:15:51;;;;;;;4.85;1.77;;;;;;;;;;6338566;22;20023;-80
2023/01/07 08:18:18;;;;;;;6.68;1.98;;;;;;;;;;6336952;22;20019;-79
2023/01/07 08:20:45;;;;;;;4.90;2.00;;;;;;;;;;6309126;22;20899;-80
2023/01/07 08:23:15;;;;;;;4.07;1.90;;;;;;;;;;6337104;22;20046;-79
2023/01/07 08:25:41;;;;;;;4.88;2.05;;;;;;;;;;6338836;22;20042;-80
2023/01/07 08:28:09;;;;;;;4.85;1.75;;;;;;;;;;6337808;22;20031;-79
2023/01/07 08:30:35;;;;;;;5.38;2.00;;;;;;;;;;6338908;22;20102;-80
2023/01/07 08:33:06;;;;;;;5.05;1.77;;;;;;;;;;6339413;22;20030;-80
2023/01/07 08:35:32;;;;;;;4.75;2.10;;;;;;;;;;6339903;22;20015;-79
2023/01/07 08:38:06;;;;;;;5.18;1.67;;;;;;;;;;6337380;22;20054;-79
2023/01/07 08:40:33;;;;;;;4.72;1.75;;;;;;;;;;6339162;22;20046;-79
2023/01/07 08:43:00;;;;;;;4.05;1.70;;;;;;;;;;6339585;22;20462;-79
2023/01/07 08:45:28;;;;;;;3.55;1.40;;;;;;;;;;6339183;22;20096;-79
2023/01/07 08:47:58;;;;;;;3.35;1.40;;;;;;;;;;6312208;22;20015;-80
2023/01/07 08:50:25;;;;;;;3.67;1.53;;;;;;;;;;6311019;22;20023;-81
2023/01/07 08:52:52;;;;;;;3.50;1.60;;;;;;;;;;6339570;22;20057;-81
2023/01/07 08:55:19;;;;;;;4.30;1.70;;;;;;;;;;6338782;22;20855;-81
2023/01/07 08:57:46;;;;;;;4.78;1.63;;;;;;;;;;6338663;22;20872;-81
2023/01/07 09:00:13;;;;;;;3.10;1.40;;;;;;;;;;6338744;22;20015;-81
2023/01/07 09:02:41;;;;;;;3.53;1.42;;;;;;;;;;6339727;22;20610;-80
2023/01/07 09:05:08;;;;;;;3.20;1.40;;;;;;;;;;6339999;22;20522;-81
2023/01/07 09:07:34;;;;;;;3.00;1.30;;;;;;;;;;6339598;22;20102;-80
2023/01/07 09:10:01;;;;;;;3.50;1.58;;;;;;;;;;6339506;22;20124;-81
2023/01/07 09:12:27;;;;;;;3.13;1.30;;;;;;;;;;6338596;22;20038;-81
2023/01/07 09:14:53;;;;;;;3.67;1.30;;;;;;;;;;6310125;22;20050;-81
2023/01/07 09:17:20;;;;;;;4.55;1.50;;;;;;;;;;6312282;22;20090;-81
2023/01/07 09:19:52;;;;;;;3.35;1.40;;;;;;;;;;6340201;22;20019;-81
2023/01/07 09:22:18;;;;;;;4.32;1.60;;;;;;;;;;6339103;22;20104;-81
2023/01/07 09:24:44;;;;;;;3.97;1.50;;;;;;;;;;6338673;22;20015;-81
2023/01/07 09:27:15;;;;;;;3.50;1.50;;;;;;;;;;6339826;22;20059;-81
2023/01/07 09:29:42;;;;;;;4.68;1.52;;;;;;;;;;6340751;22;20011;-81
2023/01/07 09:32:09;;;;;;;4.07;1.52;;;;;;;;;;6339711;22;20019;-81
2023/01/07 09:34:36;;;;;;;5.25;1.73;;;;;;;;;;6338637;22;20023;-81
2023/01/07 09:37:03;;;;;;;2.92;1.30;;;;;;;;;;6311124;22;20027;-81
2023/01/07 09:39:29;;;;;;;4.35;1.50;;;;;;;;;;6339247;22;20021;-81
2023/01/07 09:42:14;;;;;;;5.47;1.95;;;;;;;;;;6338723;22;20081;-81
2023/01/07 09:44:59;;;;;;;4.28;1.65;;;;;;;;;;6340147;22;20030;-81
2023/01/07 09:47:28;;;;;;;4.28;1.80;;;;;;;;;;6341619;22;20034;-81
2023/01/07 09:49:56;;;;;;;3.10;1.38;;;;;;;;;;6340277;22;20070;-81
2023/01/07 09:52:32;;;;;;;3.30;1.30;;;;;;;;;;6340146;22;20034;-81
2023/01/07 09:55:02;;;;;;;3.60;1.30;;;;;;;;;;6339542;22;20015;-81
2023/01/07 09:57:28;;;;;;;3.80;1.70;;;;;;;;;;6340071;22;20070;-81
2023/01/07 09:59:55;;;;;;;4.63;1.38;;;;;;;;;;6313015;22;20019;-81
2023/01/07 10:02:24;;;;;;;3.50;1.50;;;;;;;;;;6340931;22;20844;-81
2023/01/07 10:05:09;;;;;;;3.45;1.40;;;;;;;;;;6341311;22;20031;-81
2023/01/07 10:07:45;;;;;;;3.70;1.55;;;;;;;;;;6339913;22;20019;-81
2023/01/07 10:10:16;;;;;;;3.55;1.42;;;;;;;;;;6340013;22;20050;-82
2023/01/07 10:13:03;;;;;;;4.15;1.70;;;;;;;;;;6341005;22;20022;-81
2023/01/07 10:15:39;;;;;;;4.30;1.60;;;;;;;;;;6319007;22;20055;-79
2023/01/07 10:18:17;;;;;;;3.30;1.45;;;;;;;;;;6339705;22;20011;-81
2023/01/07 10:20:49;;;;;;;4.03;1.60;;;;;;;;;;6313277;22;20023;-81
2023/01/07 10:23:28;;;;;;;3.45;1.60;;;;;;;;;;6313084;22;20031;-82
2023/01/07 10:25:56;;;;;;;5.25;2.00;;;;;;;;;;6340334;22;20019;-81
2023/01/07 10:28:22;;;;;;;5.43;1.63;;;;;;;;;;6340165;22;20051;-81
2023/01/07 10:30:52;;;;;;;3.53;1.40;;;;;;;;;;6340266;22;20051;-81
2023/01/07 10:33:28;;;;;;;4.28;1.60;;;;;;;;;;6337951;22;20023;-81
2023/01/07 10:35:59;;;;;;;3.63;1.63;;;;;;;;;;6339776;22;20019;-80
2023/01/07 10:38:28;;;;;;;4.93;1.60;;;;;;;;;;6310859;22;20024;-81
2023/01/07 10:40:57;;;;;;;4.45;1.67;;;;;;;;;;6340375;22;20065;-81
2023/01/07 10:43:33;;;;;;;4.32;1.50;;;;;;;;;;6340620;22;20543;-82
2023/01/07 10:46:15;;;;;;;4.30;1.65;;;;;;;;;;6314091;22;20016;-79
2023/01/07 10:49:00;;;;;;;3.50;1.50;;;;;;;;;;6342231;22;20069;-82
2023/01/07 10:51:30;;;;;;;4.72;1.50;;;;;;;;;;6342117;22;20509;-79
2023/01/07 10:54:22;;;;;;;4.47;1.40;;;;;;;;;;6342229;22;20046;-79
2023/01/07 10:56:50;;;;;;;4.15;1.45;;;;;;;;;;6342256;22;20047;-80
2023/01/07 10:59:20;;;;;;;4.00;1.50;;;;;;;;;;6314974;22;20098;-80
2023/01/07 11:01:51;;;;;;;4.03;1.17;;;;;;;;;;6341680;22;20023;-80
2023/01/07 11:04:18;;;;;;;4.97;1.33;;;;;;;;;;6341847;22;20062;-80
2023/01/07 11:06:48;;;;;;;3.75;1.40;;;;;;;;;;6312962;22;20019;-80
2023/01/07 11:09:35;;;;;;;4.50;1.50;;;;;;;;;;6341557;22;20027;-80
2023/01/07 11:12:07;;;;;;;3.08;1.20;;;;;;;;;;6342045;22;20774;-80
2023/01/07 11:14:35;;;;;;;3.20;1.40;;;;;;;;;;6343742;22;20027;-80
2023/01/07 11:17:33;;;;;;;2.70;1.13;;;;;;;;;;6341027;22;20019;-80
2023/01/07 11:20:00;;;;;;;3.78;1.30;;;;;;;;;;6263227;22;20482;-80
2023/01/07 11:22:26;;;;;;;4.13;1.67;;;;;;;;;;6341284;22;20063;-80
2023/01/07 11:24:53;;;;;;;3.33;1.20;;;;;;;;;;6342082;22;20015;-80
2023/01/07 11:27:22;;;;;;;3.03;1.10;;;;;;;;;;6340979;22;20497;-80
2023/01/07 11:29:59;;;;;;;4.75;1.42;;;;;;;;;;6340573;22;20104;-80
2023/01/07 11:32:27;;;;;;;3.17;1.17;;;;;;;;;;6342181;22;20065;-79
2023/01/07 11:34:55;;;;;;;3.53;1.20;;;;;;;;;;6312613;22;20027;-79
2023/01/07 11:37:30;;;;;;;6.07;1.20;;;;;;;;;;6339785;22;20015;-80
2023/01/07 11:39:57;;;;;;;3.15;1.10;;;;;;;;;;6339620;22;20070;-79
2023/01/07 11:42:57;;;;;;;3.85;1.13;;;;;;;;;;6340510;22;20046;-79
2023/01/07 11:45:18;;;;;;;2.47;0.90;;;;;;;;;;6334077;22;20566;-79
2023/01/07 11:47:46;;;;;;;2.70;1.05;;;;;;;;;;6339493;22;20041;-79
2023/01/07 11:50:26;;;;;;;4.18;1.10;;;;;;;;;;6340036;22;20018;-79
2023/01/07 11:53:01;;;;;;;5.68;1.10;;;;;;;;;;6338771;22;20049;-80
2023/01/07 11:55:29;;;;;;;3.42;1.20;;;;;;;;;;6309883;22;20050;-79
2023/01/07 11:57:56;;;;;;;2.80;1.10;;;;;;;;;;6338997;22;20023;-79
2023/01/07 12:00:42;;;;;;;3.60;1.30;;;;;;;;;;6340272;22;20027;-80
2023/01/07 12:03:10;;;;;;;3.42;1.15;;;;;;;;;;6339050;22;20027;-79
2023/01/07 12:05:43;;;;;;;2.67;1.17;;;;;;;;;;6340362;22;20018;-80
2023/01/07 12:08:17;;;;;;;2.70;1.17;;;;;;;;;;6340337;22;20095;-80
2023/01/07 12:10:44;;;;;;;3.00;1.10;;;;;;;;;;6339708;22;20424;-80
2023/01/07 12:13:20;;;;;;;3.05;1.20;;;;;;;;;;6340401;22;20085;-80
2023/01/07 12:16:06;;;;;;;2.78;1.08;;;;;;;;;;6340381;22;20106;-80
2023/01/07 12:18:51;;;;;;;2.80;1.10;;;;;;;;;;6339771;22;20736;-81
2023/01/07 12:21:23;;;;;;;2.63;0.98;;;;;;;;;;6340813;22;20045;-80
2023/01/07 12:24:08;;;;;;;3.72;1.20;;;;;;;;;;6340731;22;20011;-80
2023/01/07 12:26:49;;;;;;;3.20;1.45;;;;;;;;;;6338957;22;20058;-80
2023/01/07 12:29:20;;;;;;;3.92;1.15;;;;;;;;;;6341158;22;20482;-80
2023/01/07 12:31:47;;;;;;;3.25;1.08;;;;;;;;;;6342098;22;20030;-81
2023/01/07 12:34:25;;;;;;;4.45;1.10;;;;;;;;;;6340547;22;20361;-81
2023/01/07 12:37:03;;;;;;;3.03;1.10;;;;;;;;;;6313413;22;20029;-81
2023/01/07 12:39:34;;;;;;;3.08;1.20;;;;;;;;;;6344397;22;20030;-80
2023/01/07 12:42:03;;;;;;;4.22;1.40;;;;;;;;;;6341049;22;20104;-80
2023/01/07 12:44:30;;;;;;;3.97;1.30;;;;;;;;;;6338501;22;20027;-80
2023/01/07 12:47:07;;;;;;;3.67;1.30;;;;;;;;;;6341213;22;20107;-80
2023/01/07 12:50:00;;;;;;;6.15;1.38;;;;;;;;;;6344235;22;20092;-81
2023/01/07 12:52:33;;;;;;;3.10;1.27;;;;;;;;;;6345384;22;20057;-80
2023/01/07 12:55:02;;;;;;;3.65;1.15;;;;;;;;;;6344829;22;20797;-81
2023/01/07 12:57:37;;;;;;;4.22;1.50;;;;;;;;;;6343644;22;20435;-80
2023/01/07 13:00:07;;;;;;;4.15;1.17;;;;;;;;;;6343623;22;20015;-80
2023/01/07 13:02:47;;;;;;;3.30;1.40;;;;;;;;;;6343365;22;20557;-80
2023/01/07 13:05:16;;;;;;;3.47;1.30;;;;;;;;;;6343388;22;20031;-80
2023/01/07 13:07:46;;;;;;;3.60;1.40;;;;;;;;;;6343403;22;20026;-80
2023/01/07 13:10:18;;;;;;;5.95;1.45;;;;;;;;;;6343237;22;20046;-80
2023/01/07 13:12:46;;;;;;;3.42;1.30;;;;;;;;;;6344759;22;20015;-81
2023/01/07 13:15:34;;;;;;;3.28;1.27;;;;;;;;;;6345900;22;20030;-81
2023/01/07 13:18:15;;;;;;;3.35;1.33;;;;;;;;;;6345250;22;20011;-80
2023/01/07 13:20:54;;;;;;;3.33;1.27;;;;;;;;;;6344241;22;20110;-81
2023/01/07 13:23:23;;;;;;;2.90;1.23;;;;;;;;;;6342158;22;20081;-80
2023/01/07 13:25:52;;;;;;;6.05;1.48;;;;;;;;;;6342976;22;20025;-80
2023/01/07 13:28:31;;;;;;;3.55;1.27;;;;;;;;;;6315657;22;20022;-80
2023/01/07 13:31:25;;;;;;;4.28;1.35;;;;;;;;;;6340449;22;20042;-81
2023/01/07 13:34:12;;;;;;;3.13;1.30;;;;;;;;;;6344649;22;20023;-81
2023/01/07 13:36:46;;;;;;;3.70;1.40;;;;;;;;;;6339132;22;20019;-80
2023/01/07 13:39:15;;;;;;;4.43;1.50;;;;;;;;;;6344470;22;20015;-81
2023/01/07 13:41:50;;;;;;;3.15;1.30;;;;;;;;;;6344692;22;20476;-80
2023/01/07 13:44:20;;;;;;;3.30;1.23;;;;;;;;;;6341211;22;20142;-80
2023/01/07 13:46:46;;;;;;;3.30;1.42;;;;;;;;;;6340836;22;20097;-80
2023/01/07 13:49:26;;;;;;;3.85;1.63;;;;;;;;;;6341395;22;20073;-80
2023/01/07 13:51:53;;;;;;;3.67;1.50;;;;;;;;;;6315416;22;20028;-80
2023/01/07 13:54:37;;;;;;;4.22;1.65;;;;;;;;;;6342801;22;20337;-81
2023/01/07 13:57:23;;;;;;;3.05;1.20;;;;;;;;;;6341468;22;20109;-80
2023/01/07 13:59:51;;;;;;;5.95;1.67;;;;;;;;;;6341408;22;20031;-80
2023/01/07 14:02:19;;;;;;;3.47;1.52;;;;;;;;;;6341899;22;20066;-80
2023/01/07 14:04:47;;;;;;;3.17;1.40;;;;;;;;;;6342233;22;20103;-80
2023/01/07 14:07:13;;;;;;;4.30;1.55;;;;;;;;;;6343220;22;20031;-80
2023/01/07 14:09:39;;;;;;;3.30;1.50;;;;;;;;;;6340997;22;20023;-80
2023/01/07 14:12:18;;;;;;;3.38;1.50;;;;;;;;;;6341559;22;20023;-81
2023/01/07 14:15:05;;;;;;;3.78;1.70;;;;;;;;;;6342215;22;20023;-80
2023/01/07 14:17:50;;;;;;;3.72;1.63;;;;;;;;;;6339476;22;20829;-81
2023/01/07 14:20:19;;;;;;;3.58;1.40;;;;;;;;;;6341381;22;20065;-82
2023/01/07 14:22:58;;;;;;;3.60;1.70;;;;;;;;;;6314283;22;20319;-81
2023/01/07 14:25:29;;;;;;;4.65;1.73;;;;;;;;;;6344389;22;20027;-81
2023/01/07 14:28:07;;;;;;;3.92;1.55;;;;;;;;;;6342044;22;20018;-82
2023/01/07 14:30:52;;;;;;;4.80;1.42;;;;;;;;;;6344521;22;20012;-82
2023/01/07 14:33:23;;;;;;;4.00;1.80;;;;;;;;;;6342340;22;20062;-81
2023/01/07 14:35:54;;;;;;;3.70;1.80;;;;;;;;;;6343845;22;20038;-81
2023/01/07 14:38:45;;;;;;;4.47;1.85;;;;;;;;;;6344601;22;20020;-80
2023/01/07 14:41:16;;;;;;;3.65;1.55;;;;;;;;;;6330520;22;20004;-81
2023/01/07 14:43:44;;;;;;;4.88;1.90;;;;;;;;;;6344166;22;20421;-81
2023/01/07 14:46:22;;;;;;;6.60;1.98;;;;;;;;;;6343653;22;20061;-80
2023/01/07 14:49:04;;;;;;;5.80;1.98;;;;;;;;;;6345079;22;20030;-82
2023/01/07 14:51:30;;;;;;;4.20;1.80;;;;;;;;;;6317288;22;20031;-81
2023/01/07 14:53:57;;;;;;;4.47;1.90;;;;;;;;;;6317243;22;20016;-82
2023/01/07 14:56:23;;;;;;;9.18;2.17;;;;;;;;;;6345414;22;20026;-82
2023/01/07 14:59:08;;;;;;;4.38;2.00;;;;;;;;;;6345619;22;20054;-81
2023/01/07 15:01:38;;;;;;;4.80;2.10;;;;;;;;;;6345175;22;20019;-81